Time;durP1;ratioP1;P1;durP2;ratioP2;P2;SDS_P1;SDS_P2;PMS_P1;PMS_P2;Temp;Humidity;BMP_temperature;BMP_pressure;BME280_temperature;BME280_humidity;BME280_pressure;Samples;Min_cycle;Max_cycle;Signal;HPM_P1;HPM_P2
2022/08/08 00:00:36;;;;;;;2.55;1.40;;;21.40;99.90;;;;;;10252597;28;20278;-86
2022/08/08 00:06:08;;;;;;;6.28;2.03;;;21.50;99.90;;;;;;10292239;28;20249;-87
2022/08/08 00:11:43;;;;;;;1.98;1.48;;;21.60;99.90;;;;;;10291127;28;20579;-87
2022/08/08 00:17:16;;;;;;;1.85;1.45;;;21.60;99.90;;;;;;10292425;28;20233;-87
2022/08/08 00:22:29;;;;;;;3.05;1.38;;;21.60;99.90;;;;;;10291880;28;20292;-87
2022/08/08 00:27:36;;;;;;;1.58;1.40;;;21.60;99.90;;;;;;10284793;28;20745;-87
2022/08/08 00:32:55;;;;;;;3.35;1.58;;;21.60;99.90;;;;;;10290732;28;20241;-87
2022/08/08 00:38:14;;;;;;;3.05;2.13;;;21.50;99.90;;;;;;10290545;28;20287;-87
2022/08/08 00:43:57;;;;;;;1.70;1.35;;;21.50;99.90;;;;;;10289248;28;20261;-87
2022/08/08 00:49:31;;;;;;;3.33;1.60;;;21.50;99.90;;;;;;10289287;28;20217;-87
2022/08/08 00:55:05;;;;;;;2.92;1.60;;;21.50;99.90;;;;;;10289766;28;20230;-88
2022/08/08 01:00:12;;;;;;;1.70;1.42;;;21.60;99.90;;;;;;10273284;28;20233;-87
2022/08/08 01:05:41;;;;;;;2.28;1.42;;;21.50;99.90;;;;;;10288673;28;20292;-87
2022/08/08 01:11:30;;;;;;;2.78;2.03;;;21.50;99.90;;;;;;10289572;28;20206;-87
2022/08/08 01:16:58;;;;;;;1.48;1.27;;;21.50;99.90;;;;;;10290020;28;20209;-87
2022/08/08 01:22:10;;;;;;;1.63;1.35;;;21.50;99.90;;;;;;10273954;28;20217;-87
2022/08/08 01:28:02;;;;;;;2.65;1.20;;;21.40;99.90;;;;;;10288215;28;20210;-87
2022/08/08 01:33:32;;;;;;;2.55;2.13;;;21.50;99.90;;;;;;10288087;28;20622;-87
2022/08/08 01:39:17;;;;;;;4.35;2.13;;;21.50;99.90;;;;;;10274143;28;20245;-87
2022/08/08 01:44:52;;;;;;;4.03;2.20;;;21.40;99.90;;;;;;10262303;28;20327;-88
2022/08/08 01:50:36;;;;;;;1.60;1.50;;;21.40;99.90;;;;;;10287966;28;20245;-86
2022/08/08 01:56:25;;;;;;;2.28;1.65;;;21.50;99.90;;;;;;10286836;28;20245;-87
2022/08/08 02:01:53;;;;;;;2.53;1.60;;;21.40;99.90;;;;;;10306459;28;20283;-87
2022/08/08 02:07:37;;;;;;;2.33;1.83;;;21.40;99.90;;;;;;10307254;28;20732;-87
2022/08/08 02:13:04;;;;;;;3.00;1.80;;;21.40;99.90;;;;;;10306378;28;20235;-86
2022/08/08 02:18:29;;;;;;;2.10;1.85;;;21.40;99.90;;;;;;10305779;28;20715;-87
2022/08/08 02:23:40;;;;;;;2.97;1.98;;;21.40;99.90;;;;;;10323166;28;20303;-87
2022/08/08 02:29:20;;;;;;;2.60;1.65;;;21.40;99.90;;;;;;10306346;28;20670;-87
2022/08/08 02:35:08;;;;;;;2.05;1.48;;;21.40;99.90;;;;;;10296659;28;20244;-87
2022/08/08 02:40:41;;;;;;;1.30;1.20;;;21.40;99.90;;;;;;10271361;28;20260;-87
2022/08/08 02:46:10;;;;;;;1.90;1.60;;;21.40;99.90;;;;;;10286541;28;20752;-87
2022/08/08 02:51:33;;;;;;;1.95;1.67;;;21.40;99.90;;;;;;10271392;28;20245;-87
2022/08/08 02:57:34;;;;;;;2.40;1.90;;;21.40;99.90;;;;;;10286544;28;20286;-87
2022/08/08 03:03:22;;;;;;;1.85;1.73;;;21.50;99.90;;;;;;10285748;28;20646;-87
2022/08/08 03:09:04;;;;;;;3.17;1.63;;;21.50;99.90;;;;;;10275272;28;20242;-87
2022/08/08 03:14:26;;;;;;;3.05;1.55;;;21.40;99.90;;;;;;10290714;28;20236;-87
2022/08/08 03:20:04;;;;;;;2.30;1.85;;;21.40;99.90;;;;;;10292185;28;20684;-87
2022/08/08 03:25:14;;;;;;;1.95;1.80;;;21.40;99.90;;;;;;10292034;28;20264;-87
2022/08/08 03:30:23;;;;;;;2.75;1.98;;;21.40;99.90;;;;;;10293044;28;20296;-87
2022/08/08 03:35:27;;;;;;;2.17;1.80;;;21.40;99.90;;;;;;10295388;28;20225;-87
2022/08/08 03:40:36;;;;;;;3.53;1.63;;;21.40;99.90;;;;;;10291559;28;20670;-87
2022/08/08 03:45:41;;;;;;;2.13;1.67;;;21.40;99.90;;;;;;10295868;28;20256;-87
2022/08/08 03:51:06;;;;;;;2.30;1.70;;;21.40;99.90;;;;;;10279104;28;20209;-87
2022/08/08 03:56:09;;;;;;;4.70;2.13;;;21.40;99.90;;;;;;10290573;28;20280;-87
2022/08/08 04:01:37;;;;;;;1.65;1.52;;;21.40;99.90;;;;;;10293129;28;20225;-87
2022/08/08 04:07:00;;;;;;;3.33;2.10;;;21.40;99.90;;;;;;10291930;28;20265;-87
2022/08/08 04:12:09;;;;;;;1.70;1.50;;;21.40;99.90;;;;;;10290338;28;20237;-87
2022/08/08 04:17:21;;;;;;;2.72;1.70;;;21.40;99.90;;;;;;10273382;28;20210;-87
2022/08/08 04:22:44;;;;;;;4.93;1.77;;;21.40;99.90;;;;;;10293126;28;20876;-89
2022/08/08 04:27:53;;;;;;;2.72;2.00;;;21.40;99.90;;;;;;10290089;28;20264;-87
2022/08/08 04:33:16;;;;;;;4.50;2.58;;;21.40;99.90;;;;;;10302357;28;20205;-91
2022/08/08 04:38:19;;;;;;;10.70;3.50;;;21.00;99.90;;;;;;10291304;28;20202;-87
2022/08/08 04:43:24;;;;;;;6.00;2.65;;;20.90;99.90;;;;;;10290476;28;20693;-87
2022/08/08 04:48:50;;;;;;;5.05;2.83;;;21.10;99.90;;;;;;10290570;28;20241;-87
2022/08/08 04:53:53;;;;;;;5.15;2.80;;;21.20;99.90;;;;;;10289070;28;20233;-87
2022/08/08 04:59:16;;;;;;;3.70;2.45;;;21.20;99.90;;;;;;10290013;28;20245;-86
2022/08/08 05:04:26;;;;;;;3.63;2.58;;;21.30;99.90;;;;;;10288939;28;20257;-87
2022/08/08 05:09:30;;;;;;;4.03;2.45;;;21.30;99.90;;;;;;10288929;28;20303;-87
2022/08/08 05:14:37;;;;;;;6.10;2.72;;;21.30;99.90;;;;;;10289344;28;20256;-87
2022/08/08 05:19:43;;;;;;;3.28;2.45;;;21.40;99.90;;;;;;10289321;28;20832;-87
2022/08/08 05:25:09;;;;;;;3.85;2.65;;;21.40;99.90;;;;;;10254337;28;20292;-87
2022/08/08 05:30:12;;;;;;;4.28;2.70;;;21.40;99.90;;;;;;10249154;29;20282;-87
2022/08/08 05:35:22;;;;;;;4.90;2.83;;;21.40;99.90;;;;;;10248829;28;20649;-87
2022/08/08 05:40:29;;;;;;;3.90;2.53;;;21.50;99.90;;;;;;10273020;28;20571;-87
2022/08/08 05:45:36;;;;;;;2.83;2.30;;;21.50;99.90;;;;;;10289110;28;20218;-87
2022/08/08 05:50:45;;;;;;;5.35;2.42;;;21.60;99.90;;;;;;10289174;28;20206;-87
2022/08/08 05:56:01;;;;;;;4.68;2.83;;;21.50;99.90;;;;;;10287248;28;20228;-87
2022/08/08 06:01:26;;;;;;;3.80;2.50;;;21.60;99.90;;;;;;10275248;28;20229;-87
2022/08/08 06:06:54;;;;;;;2.10;1.90;;;21.60;99.90;;;;;;10274855;28;20249;-87
2022/08/08 06:12:03;;;;;;;4.65;2.30;;;21.60;99.90;;;;;;10290970;28;20193;-87
2022/08/08 06:17:08;;;;;;;4.47;2.45;;;21.70;99.90;;;;;;10265018;28;20262;-88
2022/08/08 06:22:28;;;;;;;3.42;2.47;;;21.70;99.90;;;;;;10280793;28;20617;-88
2022/08/08 06:27:59;;;;;;;4.57;2.22;;;21.70;99.90;;;;;;10286388;28;20256;-87
2022/08/08 06:33:09;;;;;;;3.40;2.58;;;21.80;99.90;;;;;;10284789;28;20245;-88
2022/08/08 06:38:18;;;;;;;2.28;2.08;;;21.80;99.90;;;;;;10266626;28;20284;-87
2022/08/08 06:43:32;;;;;;;4.40;2.40;;;21.80;99.90;;;;;;10285667;28;20209;-86
2022/08/08 06:48:40;;;;;;;3.40;2.30;;;21.90;99.90;;;;;;10276500;28;20678;-87
2022/08/08 06:53:46;;;;;;;2.60;2.40;;;22.00;99.90;;;;;;10295133;28;20233;-87
2022/08/08 06:59:03;;;;;;;2.20;2.00;;;22.10;99.90;;;;;;10291963;28;20296;-86
2022/08/08 07:04:21;;;;;;;2.58;2.10;;;22.20;99.90;;;;;;10299432;28;20210;-87
2022/08/08 07:10:03;;;;;;;2.17;1.90;;;22.20;99.90;;;;;;10297341;28;20552;-85
2022/08/08 07:15:15;;;;;;;2.50;2.30;;;22.30;99.90;;;;;;10301711;28;20265;-86
2022/08/08 07:20:42;;;;;;;6.43;2.25;;;22.20;99.90;;;;;;10281264;28;20649;-86
2022/08/08 07:26:01;;;;;;;4.80;2.38;;;22.30;99.90;;;;;;10295022;28;20304;-87
2022/08/08 07:31:05;;;;;;;2.83;1.70;;;22.20;99.40;;;;;;10293227;28;20245;-87
2022/08/08 07:36:12;;;;;;;6.07;2.40;;;22.40;99.90;;;;;;10290978;28;20249;-88
2022/08/08 07:41:20;;;;;;;3.08;1.92;;;22.50;99.90;;;;;;10292269;28;20241;-87
2022/08/08 07:46:29;;;;;;;5.70;2.33;;;22.60;99.90;;;;;;10293013;28;20265;-87
2022/08/08 07:51:43;;;;;;;3.78;2.65;;;22.60;99.80;;;;;;10292615;28;20269;-87
2022/08/08 07:57:24;;;;;;;6.00;1.85;;;22.70;99.90;;;;;;10290783;28;20240;-87
2022/08/08 08:02:39;;;;;;;4.28;2.45;;;22.70;99.90;;;;;;10291684;28;20210;-87
2022/08/08 08:07:52;;;;;;;5.60;1.85;;;22.80;99.90;;;;;;10290188;28;20249;-87
2022/08/08 08:13:19;;;;;;;2.78;2.40;;;22.70;96.50;;;;;;10290372;28;20240;-87
2022/08/08 08:18:54;;;;;;;4.50;2.40;;;22.80;99.90;;;;;;10305941;28;20304;-87
2022/08/08 08:24:02;;;;;;;2.15;1.95;;;22.90;99.90;;;;;;10291036;28;20209;-87
2022/08/08 08:29:07;;;;;;;2.10;1.90;;;23.00;99.90;;;;;;10289466;28;20241;-88
2022/08/08 08:34:17;;;;;;;6.28;1.77;;;23.10;99.90;;;;;;10289861;28;20761;-87
2022/08/08 08:39:24;;;;;;;6.95;2.38;;;23.10;96.40;;;;;;10292230;28;20264;-87
2022/08/08 08:44:48;;;;;;;2.65;2.13;;;23.40;98.30;;;;;;10286684;28;20974;-87
2022/08/08 08:49:51;;;;;;;2.22;2.03;;;23.80;98.40;;;;;;10295837;28;20296;-88
2022/08/08 08:54:59;;;;;;;5.78;1.70;;;24.20;98.50;;;;;;10289368;28;20265;-87
2022/08/08 09:00:04;;;;;;;1.85;1.58;;;24.20;95.70;;;;;;10289768;28;20273;-87
2022/08/08 09:05:21;;;;;;;3.25;2.13;;;24.40;96.40;;;;;;10288343;28;20308;-87
2022/08/08 09:10:44;;;;;;;3.78;2.20;;;24.40;96.30;;;;;;10287783;28;20213;-87
2022/08/08 09:15:51;;;;;;;3.70;1.83;;;24.30;97.10;;;;;;10283039;28;20332;-87
2022/08/08 09:21:06;;;;;;;3.17;2.05;;;24.50;95.50;;;;;;10278400;28;20649;-86
2022/08/08 09:26:46;;;;;;;2.55;2.03;;;24.40;96.50;;;;;;10313922;28;20288;-86
2022/08/08 09:32:02;;;;;;;4.20;1.60;;;24.40;92.00;;;;;;10299101;28;20205;-90
2022/08/08 09:37:17;;;;;;;2.60;2.40;;;24.10;96.10;;;;;;10276367;28;20280;-86
2022/08/08 09:42:47;;;;;;;4.13;2.03;;;24.00;98.30;;;;;;10272080;28;20245;-86
2022/08/08 09:47:53;;;;;;;3.20;1.80;;;24.00;95.30;;;;;;10287575;28;20249;-85
2022/08/08 09:53:18;;;;;;;7.53;1.88;;;23.90;92.00;;;;;;10287159;28;20284;-85
2022/08/08 09:58:52;;;;;;;4.45;1.95;;;23.80;91.50;;;;;;10288000;28;20237;-85
2022/08/08 10:04:00;;;;;;;2.35;2.05;;;23.60;93.00;;;;;;10287421;28;20244;-85
2022/08/08 10:09:06;;;;;;;3.67;1.60;;;23.60;96.90;;;;;;10285637;28;20312;-85
2022/08/08 10:14:10;;;;;;;3.97;2.30;;;23.60;91.40;;;;;;10286487;28;20233;-85
2022/08/08 10:19:34;;;;;;;2.58;1.58;;;23.60;98.60;;;;;;10287928;28;20241;-85
2022/08/08 10:25:02;;;;;;;2.47;2.15;;;23.80;95.40;;;;;;10284593;28;20713;-85
2022/08/08 10:30:06;;;;;;;1.85;1.63;;;23.80;95.10;;;;;;10286770;28;20237;-85
2022/08/08 10:35:22;;;;;;;2.58;2.38;;;24.00;95.80;;;;;;10285657;28;20248;-85
2022/08/08 10:40:49;;;;;;;2.30;1.75;;;23.90;98.00;;;;;;10285052;28;20292;-85
2022/08/08 10:45:51;;;;;;;2.53;2.00;;;23.80;95.80;;;;;;10284606;28;20380;-85
2022/08/08 10:51:10;;;;;;;2.35;2.08;;;23.90;98.40;;;;;;10282082;28;20303;-86
2022/08/08 10:56:14;;;;;;;2.60;2.08;;;23.80;98.70;;;;;;10285186;28;20233;-86
2022/08/08 11:01:36;;;;;;;2.78;2.20;;;23.90;98.40;;;;;;10285683;28;20757;-86
2022/08/08 11:06:39;;;;;;;4.28;1.75;;;23.90;98.60;;;;;;10286343;28;20312;-86
2022/08/08 11:11:52;;;;;;;2.42;2.22;;;24.00;92.70;;;;;;10286110;28;20330;-86
2022/08/08 11:17:17;;;;;;;3.72;1.92;;;23.90;97.80;;;;;;10274809;28;20229;-85
2022/08/08 11:22:40;;;;;;;2.03;1.70;;;23.90;95.00;;;;;;10281229;28;20242;-85
2022/08/08 11:27:46;;;;;;;2.75;1.40;;;24.00;98.10;;;;;;10298693;28;20793;-85
2022/08/08 11:32:54;;;;;;;6.45;1.90;;;24.20;90.90;;;;;;10283640;28;20283;-86
2022/08/08 11:37:56;;;;;;;2.30;2.05;;;24.20;96.50;;;;;;10292226;28;20241;-86
2022/08/08 11:43:21;;;;;;;3.03;2.53;;;24.40;94.30;;;;;;10290440;28;20623;-86
2022/08/08 11:48:26;;;;;;;2.22;2.00;;;24.40;95.90;;;;;;10277283;28;20253;-86
2022/08/08 11:53:29;;;;;;;3.03;2.13;;;24.30;96.80;;;;;;10281862;28;20265;-86
2022/08/08 11:58:44;;;;;;;3.55;1.55;;;24.40;96.40;;;;;;10289523;28;20235;-86
2022/08/08 12:03:54;;;;;;;3.03;1.77;;;24.70;92.60;;;;;;10288842;28;20268;-86
2022/08/08 12:09:08;;;;;;;3.45;2.08;;;24.50;92.30;;;;;;10289156;28;20249;-85
2022/08/08 12:14:22;;;;;;;8.88;1.80;;;24.40;93.50;;;;;;10283669;28;20226;-86
2022/08/08 12:19:30;;;;;;;6.38;2.58;;;24.30;91.50;;;;;;10276129;28;20307;-85
2022/08/08 12:24:53;;;;;;;1.92;1.30;;;24.40;94.30;;;;;;10287889;28;20245;-86
2022/08/08 12:29:58;;;;;;;3.47;2.40;;;24.60;92.20;;;;;;10290244;28;20241;-85
2022/08/08 12:35:03;;;;;;;4.22;1.73;;;24.40;93.20;;;;;;10289942;28;20319;-86
2022/08/08 12:40:20;;;;;;;2.50;2.30;;;24.60;90.50;;;;;;10290378;28;20198;-85
2022/08/08 12:45:35;;;;;;;3.05;2.00;;;24.50;96.40;;;;;;10293887;28;20261;-85
2022/08/08 12:50:58;;;;;;;2.42;1.70;;;24.40;96.80;;;;;;10329291;23;20614;-79
2022/08/08 12:56:07;;;;;;;2.53;1.60;;;24.80;88.90;;;;;;10274730;28;20209;-79
2022/08/08 13:01:36;;;;;;;12.18;1.95;;;24.90;83.10;;;;;;10290959;28;20209;-79
2022/08/08 13:06:50;;;;;;;2.72;2.00;;;25.50;84.00;;;;;;10289222;28;20245;-79
2022/08/08 13:11:53;;;;;;;2.92;1.98;;;25.20;88.50;;;;;;10289354;28;20201;-79
2022/08/08 13:17:22;;;;;;;7.65;2.25;;;25.40;87.40;;;;;;10290567;28;20689;-79
2022/08/08 13:22:45;;;;;;;3.92;1.90;;;24.80;90.00;;;;;;10288572;28;20299;-79
2022/08/08 13:27:52;;;;;;;1.65;1.45;;;24.80;89.40;;;;;;10289498;28;20632;-79
2022/08/08 13:33:00;;;;;;;2.00;1.42;;;25.00;86.60;;;;;;10287845;28;20280;-79
2022/08/08 13:38:04;;;;;;;4.85;1.45;;;25.00;84.30;;;;;;10287833;28;20240;-79
2022/08/08 13:43:14;;;;;;;2.75;1.77;;;25.00;79.20;;;;;;10287796;28;20237;-79
2022/08/08 13:48:17;;;;;;;4.55;1.52;;;24.90;84.80;;;;;;10306443;28;20304;-80
2022/08/08 13:53:29;;;;;;;5.68;1.77;;;24.80;83.20;;;;;;10318433;28;20232;-81
2022/08/08 13:58:35;;;;;;;1.65;1.20;;;25.00;80.90;;;;;;10326544;28;20267;-81
2022/08/08 14:03:52;;;;;;;29.98;7.15;;;25.00;78.20;;;;;;10326192;28;20217;-81
2022/08/08 14:08:57;;;;;;;7.07;1.95;;;25.10;75.30;;;;;;10328708;28;20255;-81
2022/08/08 14:14:00;;;;;;;37.40;10.07;;;25.00;77.20;;;;;;10327905;28;20623;-81
2022/08/08 14:19:07;;;;;;;158.30;42.88;;;25.00;87.40;;;;;;10325601;28;20289;-81
2022/08/08 14:24:14;;;;;;;6.60;1.25;;;25.20;94.20;;;;;;10326015;28;20259;-81
2022/08/08 14:29:22;;;;;;;6.05;2.00;;;25.30;85.30;;;;;;10320204;28;20307;-81
2022/08/08 14:34:31;;;;;;;2.28;1.15;;;25.20;87.10;;;;;;10314693;28;20283;-82
2022/08/08 14:39:51;;;;;;;17.45;2.20;;;25.20;78.50;;;;;;10325889;28;20864;-81
2022/08/08 14:45:05;;;;;;;15.48;3.90;;;25.30;84.90;;;;;;10324329;28;20640;-80
2022/08/08 14:50:14;;;;;;;8.35;2.33;;;25.30;87.70;;;;;;10302042;28;20272;-81
2022/08/08 14:55:38;;;;;;;7.32;1.70;;;25.30;89.00;;;;;;10291783;28;20239;-81
2022/08/08 15:00:47;;;;;;;9.02;2.70;;;25.40;90.10;;;;;;10325883;28;20698;-81
2022/08/08 15:05:53;;;;;;;8.73;2.13;;;25.40;90.50;;;;;;10310872;28;20248;-81
2022/08/08 15:11:00;;;;;;;15.13;2.92;;;25.40;90.90;;;;;;10323919;28;20682;-81
2022/08/08 15:16:07;;;;;;;5.80;2.50;;;25.50;91.30;;;;;;10332940;28;20259;-81
2022/08/08 15:21:15;;;;;;;8.68;2.13;;;25.50;91.50;;;;;;10309195;28;20253;-79
2022/08/08 15:26:19;;;;;;;5.35;2.30;;;25.50;91.90;;;;;;9608587;28;10000671;-80
2022/08/08 15:31:21;;;;;;;6.55;1.83;;;25.40;92.30;;;;;;10289410;28;20257;-80
2022/08/08 15:36:46;;;;;;;4.10;2.05;;;25.30;92.80;;;;;;10287617;28;20299;-80
2022/08/08 15:41:48;;;;;;;7.40;2.08;;;25.30;93.20;;;;;;10287526;28;20237;-79
2022/08/08 15:46:52;;;;;;;6.97;1.73;;;25.10;93.20;;;;;;10288743;28;20606;-79
2022/08/08 15:51:55;;;;;;;4.00;1.90;;;25.10;94.00;;;;;;10287601;28;20315;-80
2022/08/08 15:56:57;;;;;;;4.22;1.15;;;25.00;94.30;;;;;;10288412;28;20245;-80
2022/08/08 16:02:00;;;;;;;3.78;2.20;;;25.00;94.60;;;;;;10288063;28;20237;-80
2022/08/08 16:07:05;;;;;;;3.15;1.67;;;25.00;94.90;;;;;;10284921;28;20303;-79
2022/08/08 16:12:08;;;;;;;4.18;1.50;;;25.00;95.20;;;;;;10286911;28;20302;-79
2022/08/08 16:17:30;;;;;;;2.60;1.55;;;25.00;95.50;;;;;;10286795;28;20292;-79
2022/08/08 16:22:53;;;;;;;4.18;1.90;;;24.90;95.80;;;;;;10270618;28;20303;-80
2022/08/08 16:27:56;;;;;;;3.28;1.58;;;24.80;96.10;;;;;;10292279;28;20280;-80
2022/08/08 16:32:59;;;;;;;2.60;1.45;;;24.80;96.40;;;;;;10286553;28;20312;-80
2022/08/08 16:38:02;;;;;;;3.67;1.48;;;24.70;96.60;;;;;;10286829;28;20295;-80
2022/08/08 16:43:05;;;;;;;8.02;2.10;;;24.10;86.70;;;;;;10288937;28;20642;-79
2022/08/08 16:48:10;;;;;;;7.50;1.92;;;23.60;90.90;;;;;;10289217;28;20734;-80
2022/08/08 16:53:14;;;;;;;4.05;1.48;;;23.50;89.80;;;;;;10288811;28;20311;-79
2022/08/08 16:58:37;;;;;;;4.20;1.63;;;23.40;90.50;;;;;;10265902;28;20631;-80
2022/08/08 17:03:43;;;;;;;5.47;1.58;;;23.40;90.70;;;;;;10273348;28;20210;-80
2022/08/08 17:09:04;;;;;;;4.05;1.42;;;23.30;91.50;;;;;;10288420;28;20712;-79
2022/08/08 17:14:07;;;;;;;5.03;1.70;;;23.20;92.00;;;;;;10288944;28;20589;-80
2022/08/08 17:19:20;;;;;;;5.43;1.92;;;23.30;91.90;;;;;;10289339;28;20311;-80
2022/08/08 17:24:23;;;;;;;5.15;1.13;;;23.00;92.50;;;;;;10289484;28;20240;-80
2022/08/08 17:29:32;;;;;;;8.30;1.88;;;23.00;94.40;;;;;;10290273;28;20696;-79
2022/08/08 17:34:37;;;;;;;4.57;1.17;;;23.00;94.80;;;;;;10285721;28;20233;-79
2022/08/08 17:40:00;;;;;;;15.02;2.58;;;23.00;95.00;;;;;;10274343;28;20236;-79
2022/08/08 17:45:14;;;;;;;10.52;2.13;;;23.10;98.70;;;;;;10288577;28;20233;-79
2022/08/08 17:50:25;;;;;;;4.25;1.30;;;23.10;99.90;;;;;;10287814;28;20261;-79
2022/08/08 17:55:28;;;;;;;9.23;1.98;;;23.10;98.50;;;;;;10288075;28;20233;-78
2022/08/08 18:00:51;;;;;;;7.68;2.15;;;23.00;99.90;;;;;;10287803;28;20811;-78
2022/08/08 18:05:58;;;;;;;4.43;1.42;;;23.30;99.90;;;;;;10284207;28;20237;-78
2022/08/08 18:11:06;;;;;;;4.30;1.90;;;23.30;99.90;;;;;;9937258;28;10000451;-79
2022/08/08 18:16:09;;;;;;;4.25;1.10;;;23.40;99.90;;;;;;10284425;28;20629;-78
2022/08/08 18:21:12;;;;;;;2.60;1.33;;;23.50;99.90;;;;;;10271015;28;20641;-79
2022/08/08 18:26:35;;;;;;;3.33;1.60;;;23.50;99.90;;;;;;10281192;28;20761;-79
2022/08/08 18:31:38;;;;;;;3.13;1.67;;;23.50;99.90;;;;;;10283038;28;20260;-79
2022/08/08 18:36:41;;;;;;;6.32;1.23;;;23.50;99.90;;;;;;10280050;28;20268;-79
2022/08/08 18:41:46;;;;;;;2.83;1.52;;;23.50;99.90;;;;;;10274526;28;20237;-79
2022/08/08 18:47:04;;;;;;;3.35;1.52;;;23.50;99.90;;;;;;10287598;28;20342;-79
2022/08/08 18:52:08;;;;;;;4.68;1.60;;;23.50;99.90;;;;;;10290173;28;20265;-78
2022/08/08 18:57:23;;;;;;;1.70;1.40;;;23.50;99.90;;;;;;10282940;28;20648;-79
2022/08/08 19:02:27;;;;;;;3.45;1.42;;;23.50;99.90;;;;;;10289055;28;20250;-79
2022/08/08 19:07:31;;;;;;;2.22;1.17;;;23.50;99.90;;;;;;10285962;28;20261;-79
2022/08/08 19:12:38;;;;;;;3.95;1.98;;;23.50;99.90;;;;;;10287654;28;20630;-78
2022/08/08 19:17:51;;;;;;;3.45;1.55;;;23.50;99.90;;;;;;10278071;28;20823;-78
2022/08/08 19:23:13;;;;;;;4.47;1.77;;;23.50;99.90;;;;;;10289957;28;20268;-79
2022/08/08 19:28:17;;;;;;;4.00;1.77;;;23.50;99.90;;;;;;10293435;28;20280;-79
2022/08/08 19:33:22;;;;;;;3.75;2.03;;;23.40;99.90;;;;;;10290427;28;20288;-78
2022/08/08 19:38:25;;;;;;;2.80;1.77;;;23.40;99.90;;;;;;10290340;28;20268;-79
2022/08/08 19:43:29;;;;;;;1.95;1.50;;;23.40;99.90;;;;;;10288756;28;20229;-79
2022/08/08 19:48:32;;;;;;;2.42;1.63;;;23.40;99.90;;;;;;10272877;28;20308;-80
2022/08/08 19:53:35;;;;;;;2.20;1.42;;;23.40;99.90;;;;;;10291793;28;20233;-80
2022/08/08 19:58:54;;;;;;;1.77;1.60;;;23.40;99.90;;;;;;10290339;28;20224;-82
2022/08/08 20:03:58;;;;;;;4.40;1.50;;;23.40;99.90;;;;;;10300932;28;20239;-81
2022/08/08 20:09:04;;;;;;;2.60;1.85;;;23.40;99.90;;;;;;10309054;28;20315;-81
2022/08/08 20:14:10;;;;;;;2.00;1.60;;;23.40;99.90;;;;;;10295216;28;20225;-80
2022/08/08 20:19:32;;;;;;;2.38;1.60;;;23.30;99.90;;;;;;10287831;28;20308;-80
2022/08/08 20:24:44;;;;;;;3.67;1.70;;;23.30;99.90;;;;;;10288133;28;20264;-79
2022/08/08 20:29:48;;;;;;;2.78;1.90;;;23.30;99.90;;;;;;10288273;28;20249;-79
2022/08/08 20:35:02;;;;;;;3.03;1.60;;;23.30;99.90;;;;;;10289727;28;20244;-79
2022/08/08 20:40:06;;;;;;;1.77;1.65;;;23.20;99.90;;;;;;10289883;28;20268;-79
2022/08/08 20:45:09;;;;;;;1.90;1.70;;;23.20;99.90;;;;;;10291348;28;20296;-79
2022/08/08 20:50:13;;;;;;;2.25;1.58;;;23.20;99.90;;;;;;10289498;28;20268;-79
2022/08/08 20:55:16;;;;;;;3.03;1.70;;;23.30;99.90;;;;;;10298690;28;20296;-79
2022/08/08 21:00:27;;;;;;;3.53;1.67;;;23.30;99.90;;;;;;10308553;28;20249;-79
2022/08/08 21:05:31;;;;;;;2.40;1.77;;;23.20;99.90;;;;;;10315856;28;20240;-79
2022/08/08 21:10:51;;;;;;;10.75;3.47;;;23.20;99.90;;;;;;10276626;28;20703;-84
2022/08/08 21:15:55;;;;;;;3.22;2.38;;;21.50;99.90;;;;;;10271671;28;20237;-80
2022/08/08 21:21:18;;;;;;;3.30;2.03;;;21.80;99.90;;;;;;10287774;28;20241;-81
2022/08/08 21:26:40;;;;;;;2.97;2.17;;;22.50;99.90;;;;;;10286249;28;20237;-83
2022/08/08 21:31:45;;;;;;;3.53;2.35;;;22.70;99.90;;;;;;10289191;28;20257;-80
2022/08/08 21:37:00;;;;;;;2.63;2.13;;;22.80;99.90;;;;;;10290347;28;20237;-80
2022/08/08 21:42:17;;;;;;;2.97;2.15;;;22.90;99.90;;;;;;10287265;28;20237;-80
2022/08/08 21:47:24;;;;;;;1.98;1.85;;;22.90;99.90;;;;;;10278297;28;20249;-78
2022/08/08 21:52:50;;;;;;;4.38;2.30;;;23.00;99.90;;;;;;10287229;28;20257;-79
2022/08/08 21:58:12;;;;;;;4.00;1.90;;;22.90;99.90;;;;;;10283253;28;20229;-80
2022/08/08 22:03:15;;;;;;;2.83;1.35;;;23.00;99.90;;;;;;10292190;28;20229;-80
2022/08/08 22:08:19;;;;;;;1.95;1.67;;;23.00;99.90;;;;;;10284454;28;20265;-80
2022/08/08 22:13:25;;;;;;;4.55;2.33;;;22.90;99.90;;;;;;10310611;28;20229;-80
2022/08/08 22:18:48;;;;;;;2.72;2.00;;;23.00;99.90;;;;;;10285199;28;20241;-80
2022/08/08 22:23:54;;;;;;;2.10;1.90;;;22.90;99.90;;;;;;10285916;28;20201;-80
2022/08/08 22:28:59;;;;;;;2.30;2.10;;;22.90;99.90;;;;;;10287649;28;20657;-80
2022/08/08 22:34:22;;;;;;;1.90;1.70;;;22.90;99.90;;;;;;10286916;28;20265;-80
2022/08/08 22:39:29;;;;;;;2.88;2.10;;;22.90;99.90;;;;;;10286030;28;20787;-79
2022/08/08 22:44:47;;;;;;;3.92;2.88;;;22.90;99.90;;;;;;10286870;28;20240;-80
2022/08/08 22:49:49;;;;;;;3.40;2.25;;;22.90;99.90;;;;;;10285783;28;20315;-80
2022/08/08 22:55:02;;;;;;;2.25;1.83;;;22.90;99.90;;;;;;10285709;28;20276;-80
2022/08/08 23:00:09;;;;;;;2.05;1.85;;;22.80;99.90;;;;;;10284804;28;20702;-80
2022/08/08 23:05:14;;;;;;;3.25;2.70;;;22.80;99.90;;;;;;10286494;28;20244;-80
2022/08/08 23:10:18;;;;;;;3.78;2.10;;;22.80;99.90;;;;;;10285817;28;20276;-80
2022/08/08 23:15:22;;;;;;;3.03;2.13;;;22.80;99.90;;;;;;10284304;28;20847;-80
2022/08/08 23:20:45;;;;;;;2.47;2.15;;;22.70;99.90;;;;;;10285761;28;20677;-79
2022/08/08 23:25:56;;;;;;;2.47;2.28;;;22.70;99.90;;;;;;10285232;28;20264;-79
2022/08/08 23:30:58;;;;;;;7.15;3.03;;;22.70;99.90;;;;;;10290627;28;20240;-79
2022/08/08 23:36:01;;;;;;;5.45;2.10;;;22.70;99.90;;;;;;10293367;28;20226;-79
2022/08/08 23:41:09;;;;;;;2.45;2.25;;;22.70;99.90;;;;;;10293530;28;20250;-80
2022/08/08 23:46:26;;;;;;;3.35;2.13;;;22.70;99.90;;;;;;10284807;28;20228;-79
2022/08/08 23:51:50;;;;;;;2.55;2.35;;;22.70;99.90;;;;;;10291312;28;20729;-80
2022/08/08 23:57:09;;;;;;;4.13;2.10;;;22.60;99.90;;;;;;10292677;28;20214;-80
